createdAt,value
2023-05-01T00:00:34.795Z,100
2023-05-01T00:10:37.257Z,100
2023-05-01T00:20:39.867Z,100
2023-05-01T00:30:42.152Z,100
2023-05-01T00:40:44.005Z,100
2023-05-01T00:50:45.803Z,100
2023-05-01T01:00:47.697Z,100
2023-05-01T01:10:49.754Z,100
2023-05-01T01:20:52.269Z,100
2023-05-01T01:30:54.601Z,100
2023-05-01T01:40:56.379Z,100
2023-05-01T01:50:58.798Z,100
2023-05-01T02:01:01.393Z,100
2023-05-01T02:11:04.039Z,100
2023-05-01T02:21:06.557Z,100
2023-05-01T02:31:08.597Z,100
2023-05-01T02:41:10.899Z,100
2023-05-01T02:51:13.257Z,100
2023-05-01T03:01:15.793Z,100
2023-05-01T03:11:17.543Z,100
2023-05-01T03:21:19.583Z,100
2023-05-01T03:31:22.120Z,100
2023-05-01T03:41:24.087Z,100
2023-05-01T03:51:26.203Z,100
2023-05-01T04:01:28.089Z,100
2023-05-01T04:11:30.630Z,100
2023-05-01T04:21:32.484Z,100
2023-05-01T04:31:35.050Z,100
2023-05-01T04:41:36.856Z,100
2023-05-01T04:51:39.038Z,100
2023-05-01T05:01:41.645Z,100
2023-05-01T05:11:43.688Z,100
2023-05-01T05:21:46.013Z,100
2023-05-01T05:31:48.260Z,100
2023-05-01T05:41:50.232Z,100
2023-05-01T05:51:52.000Z,100
2023-05-01T06:01:53.668Z,100
2023-05-01T06:11:56.236Z,100
2023-05-01T06:21:58.799Z,100
2023-05-01T06:32:00.738Z,100
2023-05-01T06:42:02.510Z,100
2023-05-01T06:52:04.547Z,100
2023-05-01T07:02:06.950Z,100
2023-05-01T07:12:09.382Z,100
2023-05-01T07:22:11.373Z,100
2023-05-01T07:32:13.858Z,100
2023-05-01T07:42:15.700Z,100
2023-05-01T07:52:17.877Z,100
2023-05-01T08:02:19.686Z,100
2023-05-01T08:12:22.111Z,100
2023-05-01T08:22:24.469Z,100
2023-05-01T08:32:26.831Z,100
2023-05-01T08:42:31.005Z,100
2023-05-01T08:52:31.430Z,100
2023-05-01T09:02:33.363Z,100
2023-05-01T09:12:35.017Z,100
2023-05-01T09:22:37.229Z,100
2023-05-01T09:32:41.445Z,100
2023-05-01T09:42:41.310Z,100
2023-05-01T09:52:43.302Z,100
2023-05-01T10:02:45.551Z,100
2023-05-01T10:12:47.325Z,100
2023-05-01T10:22:49.323Z,100
2023-05-01T10:32:51.544Z,100
2023-05-01T10:42:53.609Z,100
2023-05-01T10:52:56.186Z,96
2023-05-01T11:02:58.572Z,93
2023-05-01T11:13:01.034Z,87
2023-05-01T11:23:03.392Z,86
2023-05-01T11:33:06.280Z,88
2023-05-01T11:43:07.692Z,90
2023-05-01T12:03:11.998Z,88
2023-05-01T12:13:14.165Z,87
2023-05-01T12:23:16.070Z,82
2023-05-01T12:33:18.635Z,79
2023-05-01T12:43:20.482Z,74
2023-05-01T12:53:22.311Z,80
2023-05-01T13:03:24.487Z,73
2023-05-01T13:13:26.277Z,74
2023-05-01T13:23:28.851Z,71
2023-05-01T13:33:31.188Z,71
2023-05-01T13:43:33.558Z,69
2023-05-01T14:03:37.891Z,80
2023-05-01T14:13:39.891Z,87
2023-05-01T14:23:42.399Z,90
2023-05-01T14:33:44.435Z,91
2023-05-01T15:03:50.146Z,91
2023-05-01T15:13:52.151Z,95
2023-05-01T15:43:58.809Z,100
2023-05-01T15:54:00.854Z,100
2023-05-01T16:14:04.816Z,100
2023-05-01T16:24:06.967Z,100
2023-05-01T17:14:17.921Z,100
2023-05-01T17:44:24.685Z,100
2023-05-01T18:04:28.758Z,100
2023-05-01T18:14:30.393Z,100
2023-05-01T18:24:33.045Z,100
2023-05-01T18:34:35.600Z,100
2023-05-01T18:44:37.834Z,100
2023-05-01T18:54:40.331Z,100
2023-05-01T19:04:55.775Z,100
2023-05-01T19:14:44.262Z,100
2023-05-01T19:24:46.208Z,100
2023-05-01T19:34:48.636Z,100
2023-05-01T19:44:50.926Z,100
2023-05-01T20:04:55.698Z,100
2023-05-01T20:14:57.867Z,100
2023-05-01T20:25:00.099Z,100
2023-05-01T20:35:01.817Z,100
2023-05-01T20:45:03.689Z,100
2023-05-01T20:55:05.372Z,100
2023-05-01T21:05:07.929Z,100
2023-05-01T21:05:29.866Z,100
2023-05-01T21:15:17.079Z,100
2023-05-01T21:25:19.206Z,100
2023-05-01T21:35:20.867Z,100
2023-05-01T21:45:22.534Z,100
2023-05-01T21:55:24.337Z,100
2023-05-01T22:05:26.322Z,100
2023-05-01T22:15:28.726Z,100
2023-05-01T22:35:32.809Z,100
2023-05-01T22:45:35.114Z,100
2023-05-01T22:55:37.295Z,100
2023-05-01T23:05:39.792Z,100
2023-05-01T23:15:41.739Z,100
2023-05-01T23:35:45.385Z,100
2023-05-01T23:55:49.266Z,100
